Time;durP1;ratioP1;P1;durP2;ratioP2;P2;SDS_P1;SDS_P2;PMS_P1;PMS_P2;Temp;Humidity;BMP_temperature;BMP_pressure;BME280_temperature;BME280_humidity;BME280_pressure;Samples;Min_cycle;Max_cycle;Signal;HPM_P1;HPM_P2
2022/02/01 00:02:26;;;;;;;121.85;50.85;;;;;;;;;;5033703;28;20033;-65
2022/02/01 00:05:07;;;;;;;88.85;37.30;;;;;;;;;;5033921;28;20029;-64
2022/02/01 00:07:47;;;;;;;74.05;32.15;;;;;;;;;;5033914;28;20033;-64
2022/02/01 00:10:39;;;;;;;70.90;28.30;;;;;;;;;;5032578;28;20104;-64
2022/02/01 00:13:11;;;;;;;79.65;29.67;;;;;;;;;;5033254;28;20037;-64
2022/02/01 00:37:33;;;;;;;62.72;27.17;;;;;;;;;;5033282;28;20139;-65
2022/02/01 00:40:00;;;;;;;67.07;31.80;;;;;;;;;;5032015;28;20077;-65
2022/02/01 00:42:26;;;;;;;62.83;29.88;;;;;;;;;;5033287;28;20033;-66
2022/02/01 00:45:12;;;;;;;64.07;26.70;;;;;;;;;;5031581;28;20033;-66
2022/02/01 00:47:38;;;;;;;72.18;30.60;;;;;;;;;;5033091;28;20057;-67
2022/02/01 00:50:04;;;;;;;75.88;34.47;;;;;;;;;;5031820;28;20501;-66
2022/02/01 00:52:34;;;;;;;83.63;35.83;;;;;;;;;;5031554;28;20079;-66
2022/02/01 00:55:00;;;;;;;91.75;38.13;;;;;;;;;;5031869;28;20021;-66
2022/02/01 00:57:28;;;;;;;84.70;37.47;;;;;;;;;;5032689;28;20433;-65
2022/02/01 00:59:54;;;;;;;122.50;54.25;;;;;;;;;;5033114;28;20037;-66
2022/02/01 01:02:20;;;;;;;71.70;37.42;;;;;;;;;;5033039;28;20084;-62
2022/02/01 01:04:46;;;;;;;82.25;39.72;;;;;;;;;;5032725;28;20087;-63
2022/02/01 01:07:12;;;;;;;82.68;37.75;;;;;;;;;;5033020;28;20470;-64
2022/02/01 01:09:44;;;;;;;73.28;37.50;;;;;;;;;;5032992;28;20138;-63
2022/02/01 01:12:10;;;;;;;93.57;40.40;;;;;;;;;;5033023;28;20029;-67
2022/02/01 01:44:34;;;;;;;98.43;44.20;;;;;;;;;;4999513;28;20066;-63
2022/02/01 01:55:16;;;;;;;88.70;37.75;;;;;;;;;;5036113;28;20103;-63
2022/02/01 01:57:42;;;;;;;80.05;36.05;;;;;;;;;;5036295;28;20037;-63
2022/02/01 02:00:27;;;;;;;79.53;36.28;;;;;;;;;;5036250;28;20033;-62
2022/02/01 02:02:54;;;;;;;77.47;36.33;;;;;;;;;;5036285;28;20108;-62
2022/02/01 02:05:20;;;;;;;80.25;36.30;;;;;;;;;;5034789;28;20113;-63
2022/02/01 02:07:48;;;;;;;81.13;35.95;;;;;;;;;;5036067;28;20034;-63
2022/02/01 02:10:15;;;;;;;71.90;33.17;;;;;;;;;;5036012;28;20033;-62
2022/02/01 02:15:46;;;;;;;81.72;33.92;;;;;;;;;;5035943;28;20039;-63
2022/02/01 02:18:13;;;;;;;76.45;34.78;;;;;;;;;;5036018;28;20032;-64
2022/02/01 02:20:43;;;;;;;80.07;35.13;;;;;;;;;;5035898;28;20052;-63
2022/02/01 02:23:09;;;;;;;71.53;32.33;;;;;;;;;;5035530;28;20057;-67
2022/02/01 02:25:39;;;;;;;80.22;33.38;;;;;;;;;;5035735;28;20080;-64
2022/02/01 02:28:08;;;;;;;68.65;31.17;;;;;;;;;;5035979;28;20018;-66
2022/02/01 02:30:35;;;;;;;70.75;30.40;;;;;;;;;;5035722;28;20033;-64
2022/02/01 02:33:06;;;;;;;72.53;30.58;;;;;;;;;;5035609;28;20112;-64
2022/02/01 02:35:36;;;;;;;66.13;27.77;;;;;;;;;;5034347;28;20043;-63
2022/02/01 02:38:12;;;;;;;63.70;28.70;;;;;;;;;;5035550;28;20025;-64
2022/02/01 02:46:01;;;;;;;68.78;27.63;;;;;;;;;;5034546;28;20060;-62
2022/02/01 02:48:28;;;;;;;58.72;24.98;;;;;;;;;;5035391;28;20441;-64
2022/02/01 02:50:54;;;;;;;57.35;24.08;;;;;;;;;;5035611;28;20541;-63
2022/02/01 02:53:20;;;;;;;60.30;23.52;;;;;;;;;;5033994;28;20504;-62
2022/02/01 02:55:46;;;;;;;55.55;24.17;;;;;;;;;;5033821;28;20030;-63
2022/02/01 02:58:13;;;;;;;56.05;22.58;;;;;;;;;;5035254;28;20458;-62
2022/02/01 03:00:39;;;;;;;55.67;22.88;;;;;;;;;;5035148;28;20025;-62
2022/02/01 03:03:05;;;;;;;54.90;21.20;;;;;;;;;;5035119;28;20049;-62
2022/02/01 03:05:32;;;;;;;51.05;19.33;;;;;;;;;;5034689;28;20451;-63
2022/02/01 03:07:58;;;;;;;50.55;20.95;;;;;;;;;;5035003;28;20116;-62
2022/02/01 03:10:24;;;;;;;44.28;20.35;;;;;;;;;;5034666;28;20433;-62
2022/02/01 03:20:43;;;;;;;47.45;19.33;;;;;;;;;;5034847;28;20044;-64
2022/02/01 03:23:10;;;;;;;49.45;19.75;;;;;;;;;;5034697;28;20472;-65
2022/02/01 03:25:36;;;;;;;45.22;18.95;;;;;;;;;;5034642;28;20052;-65
2022/02/01 03:28:02;;;;;;;46.55;19.90;;;;;;;;;;5034647;28;20040;-64
2022/02/01 03:30:29;;;;;;;42.38;19.27;;;;;;;;;;5033244;28;20029;-63
2022/02/01 03:32:55;;;;;;;46.05;19.00;;;;;;;;;;5033241;28;20179;-64
2022/02/01 03:35:21;;;;;;;43.05;18.92;;;;;;;;;;5034445;28;20060;-67
2022/02/01 03:37:47;;;;;;;42.58;18.00;;;;;;;;;;5033095;28;20587;-67
2022/02/01 03:40:17;;;;;;;48.50;19.75;;;;;;;;;;5033127;28;20034;-65
2022/02/01 03:42:44;;;;;;;48.65;18.48;;;;;;;;;;5034091;28;20028;-65
2022/02/01 03:45:10;;;;;;;44.10;17.60;;;;;;;;;;5034286;28;20108;-64
2022/02/01 03:47:37;;;;;;;48.08;19.08;;;;;;;;;;5033859;28;20064;-63
2022/02/01 03:50:07;;;;;;;37.97;17.95;;;;;;;;;;5034245;28;20109;-65
2022/02/01 03:52:33;;;;;;;46.45;19.42;;;;;;;;;;5034179;28;20381;-63
2022/02/01 03:55:00;;;;;;;51.22;18.77;;;;;;;;;;5034056;28;20461;-65
2022/02/01 03:57:26;;;;;;;42.00;19.02;;;;;;;;;;5033953;28;20037;-65
2022/02/01 03:59:52;;;;;;;44.90;20.20;;;;;;;;;;5033216;28;20039;-64
2022/02/01 04:02:19;;;;;;;42.38;18.50;;;;;;;;;;5033952;28;20109;-66
2022/02/01 04:04:49;;;;;;;42.05;18.42;;;;;;;;;;5032585;28;20028;-65
2022/02/01 04:07:15;;;;;;;41.47;19.05;;;;;;;;;;5033799;28;20108;-66
2022/02/01 04:09:42;;;;;;;51.03;20.25;;;;;;;;;;5033858;28;20037;-68
2022/02/01 04:12:08;;;;;;;51.83;20.85;;;;;;;;;;5033782;28;20025;-65
2022/02/01 04:14:35;;;;;;;57.20;22.60;;;;;;;;;;5033760;28;20052;-66
2022/02/01 04:17:03;;;;;;;48.67;21.50;;;;;;;;;;5033689;28;20037;-64
2022/02/01 04:19:31;;;;;;;51.20;20.00;;;;;;;;;;5033694;28;20048;-66
2022/02/01 04:22:01;;;;;;;49.58;22.13;;;;;;;;;;5032323;28;20528;-64
2022/02/01 04:24:31;;;;;;;53.33;22.50;;;;;;;;;;5033646;28;20465;-64
2022/02/01 04:26:57;;;;;;;56.03;23.27;;;;;;;;;;5032298;28;20389;-64
2022/02/01 04:29:24;;;;;;;62.80;29.35;;;;;;;;;;5033501;28;20063;-66
2022/02/01 04:31:50;;;;;;;72.13;28.83;;;;;;;;;;5032129;28;20156;-63
2022/02/01 04:34:17;;;;;;;63.00;27.65;;;;;;;;;;5032079;28;20025;-67
2022/02/01 04:36:43;;;;;;;76.28;29.13;;;;;;;;;;5033357;28;20096;-65
2022/02/01 04:39:10;;;;;;;71.93;30.85;;;;;;;;;;5033581;28;20037;-64
2022/02/01 04:41:37;;;;;;;84.72;28.90;;;;;;;;;;5033297;28;20033;-64
2022/02/01 04:44:03;;;;;;;80.53;27.67;;;;;;;;;;5033277;28;20030;-63
2022/02/01 04:46:30;;;;;;;76.80;29.73;;;;;;;;;;5031657;28;20115;-62
2022/02/01 04:48:59;;;;;;;78.55;30.13;;;;;;;;;;5033276;28;20068;-63
2022/02/01 04:51:26;;;;;;;69.57;29.50;;;;;;;;;;5031894;28;20461;-66
2022/02/01 04:53:52;;;;;;;86.63;30.98;;;;;;;;;;5031870;28;20442;-66
2022/02/01 04:56:19;;;;;;;74.63;30.92;;;;;;;;;;5031738;28;20022;-63
2022/02/01 04:58:45;;;;;;;86.57;31.10;;;;;;;;;;5033152;28;20033;-65
2022/02/01 05:01:13;;;;;;;97.95;32.78;;;;;;;;;;5033037;28;20129;-66
2022/02/01 05:03:40;;;;;;;84.53;32.70;;;;;;;;;;5033064;28;20033;-65
2022/02/01 05:06:07;;;;;;;85.38;31.77;;;;;;;;;;5032992;28;20108;-62
2022/02/01 05:08:34;;;;;;;92.55;32.08;;;;;;;;;;5033069;28;20033;-64
2022/02/01 05:11:00;;;;;;;89.40;32.88;;;;;;;;;;5034766;28;20029;-64
2022/02/01 05:16:05;;;;;;;97.35;33.25;;;;;;;;;;5036994;28;20036;-63
2022/02/01 05:18:41;;;;;;;103.93;32.88;;;;;;;;;;5035768;28;20029;-64
2022/02/01 05:21:14;;;;;;;101.32;33.78;;;;;;;;;;5037024;28;20021;-65
2022/02/01 05:23:42;;;;;;;103.43;37.00;;;;;;;;;;5035664;28;20032;-69
2022/02/01 05:26:08;;;;;;;101.55;35.92;;;;;;;;;;5036871;28;20034;-67
2022/02/01 05:28:36;;;;;;;110.10;34.80;;;;;;;;;;5036857;28;20075;-65
2022/02/01 05:31:03;;;;;;;89.97;32.28;;;;;;;;;;5036805;28;20061;-65
2022/02/01 05:33:33;;;;;;;101.53;32.80;;;;;;;;;;5036809;28;20056;-64
2022/02/01 05:36:00;;;;;;;92.50;32.80;;;;;;;;;;5036645;28;20072;-63
2022/02/01 05:38:26;;;;;;;110.00;35.55;;;;;;;;;;5035427;28;20061;-62
2022/02/01 05:40:53;;;;;;;112.95;35.10;;;;;;;;;;5035322;28;20385;-62
2022/02/01 05:43:23;;;;;;;103.80;32.75;;;;;;;;;;5036476;28;20039;-62
2022/02/01 05:45:50;;;;;;;99.25;33.60;;;;;;;;;;5036324;28;20058;-63
2022/02/01 05:48:17;;;;;;;98.50;33.03;;;;;;;;;;5034869;28;20030;-62
2022/02/01 05:50:44;;;;;;;94.05;32.10;;;;;;;;;;5036478;28;20080;-63
2022/02/01 05:53:10;;;;;;;91.75;30.63;;;;;;;;;;5036367;28;20116;-62
2022/02/01 05:55:36;;;;;;;97.38;32.47;;;;;;;;;;5036011;28;20485;-63
2022/02/01 05:58:03;;;;;;;97.13;32.72;;;;;;;;;;5036249;28;20033;-63
2022/02/01 06:00:29;;;;;;;98.25;31.13;;;;;;;;;;5036173;28;20030;-65
2022/02/01 06:02:55;;;;;;;99.00;35.35;;;;;;;;;;5036506;28;20087;-64
2022/02/01 06:05:22;;;;;;;99.57;32.33;;;;;;;;;;5036180;28;20029;-66
2022/02/01 06:07:48;;;;;;;92.40;32.90;;;;;;;;;;5036110;28;20488;-63
2022/02/01 06:10:14;;;;;;;87.53;30.08;;;;;;;;;;5035873;28;20382;-62
2022/02/01 06:12:41;;;;;;;92.32;31.17;;;;;;;;;;5034682;28;20068;-66
2022/02/01 06:15:07;;;;;;;100.57;33.83;;;;;;;;;;5035968;28;20030;-64
2022/02/01 06:17:34;;;;;;;113.97;37.05;;;;;;;;;;5034604;28;20057;-64
2022/02/01 06:20:02;;;;;;;104.57;34.45;;;;;;;;;;5034590;28;20055;-63
2022/02/01 06:22:28;;;;;;;113.75;35.45;;;;;;;;;;5034757;28;20037;-64
2022/02/01 06:24:56;;;;;;;91.45;34.42;;;;;;;;;;5036060;28;20033;-63
2022/02/01 06:27:22;;;;;;;91.68;33.88;;;;;;;;;;5035766;28;20033;-64
2022/02/01 06:29:48;;;;;;;121.50;43.28;;;;;;;;;;5034400;28;20037;-63
2022/02/01 06:32:15;;;;;;;102.80;39.50;;;;;;;;;;5030542;28;20075;-67
2022/02/01 06:34:41;;;;;;;86.85;33.42;;;;;;;;;;5024451;28;20036;-66
2022/02/01 06:37:08;;;;;;;80.38;33.47;;;;;;;;;;5035588;28;20124;-65
2022/02/01 06:39:34;;;;;;;62.33;30.13;;;;;;;;;;5035537;28;20120;-65
2022/02/01 06:42:00;;;;;;;70.20;31.27;;;;;;;;;;5035380;28;20032;-64
2022/02/01 06:44:26;;;;;;;71.93;33.22;;;;;;;;;;5033980;28;20495;-64
2022/02/01 06:46:53;;;;;;;83.93;36.70;;;;;;;;;;5034877;28;20049;-64
2022/02/01 06:49:19;;;;;;;91.35;38.25;;;;;;;;;;5035047;28;20045;-66
2022/02/01 06:51:45;;;;;;;86.43;35.58;;;;;;;;;;5035572;28;20061;-64
2022/02/01 06:54:12;;;;;;;93.68;38.55;;;;;;;;;;5034972;28;20022;-63
2022/02/01 06:56:39;;;;;;;92.43;36.47;;;;;;;;;;5034986;28;20073;-66
2022/02/01 06:59:05;;;;;;;79.32;36.10;;;;;;;;;;5035395;28;20029;-66
2022/02/01 07:01:32;;;;;;;77.70;34.20;;;;;;;;;;5035120;28;20445;-65
2022/02/01 07:03:59;;;;;;;60.30;28.33;;;;;;;;;;5034495;28;20032;-64
2022/02/01 07:06:26;;;;;;;65.07;28.58;;;;;;;;;;5034738;28;20129;-63
2022/02/01 07:08:52;;;;;;;67.90;29.25;;;;;;;;;;5034784;28;20018;-65
2022/02/01 07:11:19;;;;;;;55.53;26.73;;;;;;;;;;5033701;28;20049;-66
2022/02/01 07:13:46;;;;;;;47.47;24.30;;;;;;;;;;5040099;28;20489;-64
2022/02/01 07:16:13;;;;;;;44.47;22.23;;;;;;;;;;5014841;28;20034;-66
2022/02/01 07:18:39;;;;;;;52.58;25.08;;;;;;;;;;5014974;28;20026;-66
2022/02/01 07:21:06;;;;;;;57.15;26.60;;;;;;;;;;5014563;28;20025;-64
2022/02/01 07:23:33;;;;;;;60.63;27.35;;;;;;;;;;5013513;28;20056;-63
2022/02/01 07:25:59;;;;;;;50.28;24.52;;;;;;;;;;5013462;28;20018;-64
2022/02/01 07:28:26;;;;;;;52.75;23.27;;;;;;;;;;5013511;28;20541;-63
2022/02/01 07:30:53;;;;;;;58.80;24.80;;;;;;;;;;5014736;28;20113;-65
2022/02/01 07:33:20;;;;;;;51.38;25.92;;;;;;;;;;5014452;28;20026;-64
2022/02/01 07:35:47;;;;;;;53.15;24.95;;;;;;;;;;5014731;28;20053;-65
2022/02/01 07:38:17;;;;;;;53.17;24.55;;;;;;;;;;5014487;28;20480;-64
2022/02/01 07:40:44;;;;;;;49.30;24.17;;;;;;;;;;5014336;28;20065;-63
2022/02/01 07:43:10;;;;;;;49.05;23.45;;;;;;;;;;5014133;28;20026;-65
2022/02/01 07:45:39;;;;;;;46.10;21.25;;;;;;;;;;5012710;28;20040;-63
2022/02/01 07:48:05;;;;;;;39.25;19.35;;;;;;;;;;5014437;28;20034;-61
2022/02/01 07:50:32;;;;;;;49.88;22.27;;;;;;;;;;5014221;28;20021;-62
2022/02/01 07:52:59;;;;;;;47.55;21.90;;;;;;;;;;5014603;28;20034;-62
2022/02/01 07:55:26;;;;;;;41.55;20.77;;;;;;;;;;5014276;28;20033;-66
2022/02/01 07:57:52;;;;;;;57.05;25.40;;;;;;;;;;5013912;28;20039;-63
2022/02/01 08:00:19;;;;;;;55.50;25.80;;;;;;;;;;5012819;28;20474;-64
2022/02/01 08:02:45;;;;;;;63.70;27.00;;;;;;;;;;5012668;28;20463;-64
2022/02/01 08:05:12;;;;;;;59.20;26.35;;;;;;;;;;5012756;28;20026;-64
2022/02/01 08:07:38;;;;;;;59.13;29.45;;;;;;;;;;5013593;28;20061;-63
2022/02/01 08:10:09;;;;;;;76.93;32.03;;;;;;;;;;5013987;28;20087;-62
2022/02/01 08:18:05;;;;;;;65.55;27.95;;;;;;;;;;5013442;28;20044;-63
2022/02/01 08:20:36;;;;;;;62.58;26.80;;;;;;;;;;5013799;28;20080;-63
2022/02/01 08:23:03;;;;;;;55.95;26.92;;;;;;;;;;5013860;28;20021;-66
2022/02/01 08:25:30;;;;;;;57.05;27.33;;;;;;;;;;5012346;28;20030;-63
2022/02/01 08:27:57;;;;;;;58.17;27.92;;;;;;;;;;5012954;28;20034;-63
2022/02/01 08:30:24;;;;;;;62.22;28.95;;;;;;;;;;5013651;28;20022;-62
2022/02/01 08:32:51;;;;;;;69.25;32.15;;;;;;;;;;5011891;28;20065;-63
2022/02/01 08:35:18;;;;;;;71.97;34.47;;;;;;;;;;5013507;28;20034;-64
2022/02/01 08:37:44;;;;;;;59.30;29.80;;;;;;;;;;5013256;28;20065;-64
2022/02/01 08:40:12;;;;;;;70.13;32.72;;;;;;;;;;5013394;28;20034;-62
2022/02/01 08:42:39;;;;;;;69.47;33.33;;;;;;;;;;5013441;28;20026;-63
2022/02/01 08:45:05;;;;;;;118.53;50.47;;;;;;;;;;5012770;28;20454;-62
2022/02/01 08:47:31;;;;;;;64.82;29.08;;;;;;;;;;5012783;28;20085;-61
2022/02/01 08:49:58;;;;;;;64.15;33.88;;;;;;;;;;5013491;28;20079;-63
2022/02/01 08:52:36;;;;;;;76.10;35.88;;;;;;;;;;5013042;28;20060;-64
2022/02/01 08:55:05;;;;;;;58.50;30.30;;;;;;;;;;5013344;28;20026;-63
2022/02/01 08:57:31;;;;;;;57.33;28.30;;;;;;;;;;5011739;28;20057;-63
2022/02/01 09:00:04;;;;;;;53.67;27.23;;;;;;;;;;5013156;28;20029;-63
2022/02/01 09:02:30;;;;;;;72.55;33.47;;;;;;;;;;5013278;28;20056;-64
2022/02/01 09:04:56;;;;;;;78.40;33.05;;;;;;;;;;5013179;28;20057;-66
2022/02/01 09:07:23;;;;;;;57.92;30.00;;;;;;;;;;5013128;28;20049;-63
2022/02/01 09:09:50;;;;;;;67.68;32.45;;;;;;;;;;5011777;28;20025;-64
2022/02/01 09:12:18;;;;;;;70.53;36.05;;;;;;;;;;5013090;28;20029;-64
2022/02/01 09:14:47;;;;;;;65.57;32.30;;;;;;;;;;5013054;28;20030;-63
2022/02/01 09:17:16;;;;;;;57.88;30.45;;;;;;;;;;5012795;28;20037;-63
2022/02/01 09:19:42;;;;;;;55.65;29.05;;;;;;;;;;5012562;28;20026;-63
2022/02/01 09:22:10;;;;;;;56.05;28.92;;;;;;;;;;5011727;28;20057;-62
2022/02/01 09:24:36;;;;;;;65.70;32.63;;;;;;;;;;5011681;28;20359;-63
2022/02/01 09:27:02;;;;;;;60.90;32.60;;;;;;;;;;5012939;28;20030;-62
2022/02/01 09:29:28;;;;;;;56.33;29.15;;;;;;;;;;5011650;28;20030;-63
2022/02/01 09:31:55;;;;;;;61.50;31.90;;;;;;;;;;5012826;28;20034;-63
2022/02/01 09:34:22;;;;;;;58.00;30.55;;;;;;;;;;5012975;28;20033;-63
2022/02/01 09:36:49;;;;;;;64.13;31.58;;;;;;;;;;5012490;28;20113;-63
2022/02/01 09:39:15;;;;;;;62.38;31.75;;;;;;;;;;5012891;28;20466;-63
2022/02/01 09:41:42;;;;;;;56.38;29.88;;;;;;;;;;5012621;28;20113;-63
2022/02/01 09:44:08;;;;;;;51.08;28.13;;;;;;;;;;5012652;28;20116;-63
2022/02/01 09:46:35;;;;;;;66.60;34.28;;;;;;;;;;5012116;28;20410;-62
2022/02/01 09:49:02;;;;;;;54.08;31.52;;;;;;;;;;5011499;28;20026;-63
2022/02/01 09:51:28;;;;;;;55.13;30.67;;;;;;;;;;5012744;28;20113;-62
2022/02/01 09:53:55;;;;;;;60.15;32.28;;;;;;;;;;5012686;28;20069;-62
2022/02/01 09:56:21;;;;;;;61.10;28.95;;;;;;;;;;5014618;28;20112;-65
2022/02/01 09:58:49;;;;;;;68.07;33.38;;;;;;;;;;5016602;28;20038;-65
2022/02/01 10:01:19;;;;;;;422.85;185.82;;;;;;;;;;5016470;28;20517;-65
2022/02/01 10:03:46;;;;;;;102.13;61.05;;;;;;;;;;5015062;28;20034;-66
2022/02/01 10:06:17;;;;;;;74.57;40.80;;;;;;;;;;5016235;28;20026;-65
2022/02/01 10:08:47;;;;;;;63.42;34.13;;;;;;;;;;5016292;28;20026;-63
2022/02/01 10:11:14;;;;;;;52.00;28.83;;;;;;;;;;5016207;28;20026;-64
2022/02/01 10:13:44;;;;;;;61.08;34.03;;;;;;;;;;5016015;28;20100;-66
2022/02/01 10:16:29;;;;;;;67.30;33.38;;;;;;;;;;5016094;28;20018;-66
2022/02/01 10:19:05;;;;;;;53.65;28.73;;;;;;;;;;5015853;28;20486;-64
2022/02/01 10:21:31;;;;;;;42.80;22.95;;;;;;;;;;5016079;28;20133;-66
2022/02/01 10:24:04;;;;;;;44.28;24.95;;;;;;;;;;5016127;28;20105;-64
2022/02/01 10:26:30;;;;;;;45.17;26.48;;;;;;;;;;5016139;28;20109;-65
2022/02/01 10:31:33;;;;;;;43.22;25.13;;;;;;;;;;5015544;28;20036;-65
2022/02/01 10:34:03;;;;;;;38.03;20.92;;;;;;;;;;5015754;28;20108;-65
2022/02/01 10:36:36;;;;;;;45.28;24.05;;;;;;;;;;5015835;28;20022;-65
2022/02/01 10:39:04;;;;;;;39.83;23.85;;;;;;;;;;5014997;28;20029;-64
2022/02/01 10:41:30;;;;;;;51.35;27.65;;;;;;;;;;5014229;28;20355;-66
2022/02/01 10:43:57;;;;;;;44.35;26.00;;;;;;;;;;5015292;28;20029;-65
2022/02/01 10:46:25;;;;;;;47.03;27.25;;;;;;;;;;5013847;28;20523;-66
2022/02/01 10:48:54;;;;;;;67.60;33.25;;;;;;;;;;5015452;28;20034;-64
2022/02/01 10:51:22;;;;;;;48.75;25.55;;;;;;;;;;5015520;28;20045;-65
2022/02/01 10:53:48;;;;;;;58.92;27.67;;;;;;;;;;5015323;28;20471;-65
2022/02/01 10:56:19;;;;;;;52.88;27.73;;;;;;;;;;5015019;28;20026;-66
2022/02/01 10:58:45;;;;;;;47.13;23.30;;;;;;;;;;5014771;28;20478;-65
2022/02/01 11:01:12;;;;;;;57.72;29.85;;;;;;;;;;5015295;28;20022;-65
2022/02/01 11:03:43;;;;;;;69.28;31.48;;;;;;;;;;5013716;28;20451;-65
2022/02/01 11:06:10;;;;;;;50.63;25.25;;;;;;;;;;5013816;28;20038;-65
2022/02/01 11:08:39;;;;;;;42.78;23.45;;;;;;;;;;5013331;28;20049;-66
2022/02/01 11:11:05;;;;;;;51.42;25.63;;;;;;;;;;5015151;28;20026;-65
2022/02/01 11:13:42;;;;;;;56.70;27.75;;;;;;;;;;5014815;28;20036;-64
2022/02/01 11:16:14;;;;;;;44.72;23.35;;;;;;;;;;5014923;28;20037;-67
2022/02/01 11:18:51;;;;;;;41.13;23.08;;;;;;;;;;5013291;28;20121;-66
2022/02/01 11:21:18;;;;;;;48.50;23.85;;;;;;;;;;5028776;28;20121;-68
2022/02/01 11:23:53;;;;;;;47.30;26.75;;;;;;;;;;5034145;28;20151;-72
2022/02/01 11:26:38;;;;;;;39.50;21.73;;;;;;;;;;5033294;28;20393;-64
2022/02/01 11:31:47;;;;;;;55.92;26.77;;;;;;;;;;5034589;28;20382;-64
2022/02/01 11:34:15;;;;;;;39.40;23.85;;;;;;;;;;5034189;28;20394;-63
2022/02/01 11:36:42;;;;;;;42.72;23.92;;;;;;;;;;5032730;28;20053;-70
2022/02/01 11:39:17;;;;;;;53.20;27.55;;;;;;;;;;5034368;28;20074;-66
2022/02/01 11:41:44;;;;;;;44.30;23.15;;;;;;;;;;5034390;28;20343;-65
2022/02/01 11:44:10;;;;;;;45.20;25.65;;;;;;;;;;5034178;28;20030;-64
2022/02/01 11:46:36;;;;;;;54.53;27.20;;;;;;;;;;5032432;28;20049;-63
2022/02/01 11:49:04;;;;;;;58.30;29.52;;;;;;;;;;5033839;28;20556;-66
2022/02/01 11:51:32;;;;;;;60.72;30.90;;;;;;;;;;5030001;28;20449;-65
2022/02/01 11:53:59;;;;;;;71.97;34.90;;;;;;;;;;5033579;28;20033;-66
2022/02/01 11:56:32;;;;;;;56.58;30.42;;;;;;;;;;5033856;28;20025;-64
2022/02/01 11:59:06;;;;;;;50.58;26.88;;;;;;;;;;5033786;28;20025;-67
2022/02/01 12:01:37;;;;;;;44.13;24.90;;;;;;;;;;5031843;28;20337;-67
2022/02/01 12:04:09;;;;;;;35.45;21.17;;;;;;;;;;5032321;28;20029;-66
2022/02/01 12:06:47;;;;;;;41.92;22.23;;;;;;;;;;5033878;28;20112;-67
2022/02/01 12:09:22;;;;;;;53.25;28.15;;;;;;;;;;5032366;28;20545;-65
2022/02/01 12:11:54;;;;;;;50.33;26.98;;;;;;;;;;5033734;28;20034;-64
2022/02/01 12:14:20;;;;;;;44.08;23.88;;;;;;;;;;5033637;28;20032;-65
2022/02/01 12:16:50;;;;;;;44.38;24.05;;;;;;;;;;5033604;28;20404;-65
2022/02/01 12:19:21;;;;;;;44.00;23.35;;;;;;;;;;5033125;28;20113;-65
2022/02/01 12:22:14;;;;;;;41.70;23.40;;;;;;;;;;5032286;28;20112;-66
2022/02/01 12:24:41;;;;;;;52.97;24.80;;;;;;;;;;5033566;28;20107;-67
2022/02/01 12:27:07;;;;;;;55.28;27.05;;;;;;;;;;5033136;28;20116;-68
2022/02/01 12:29:33;;;;;;;43.80;24.45;;;;;;;;;;5032095;28;20527;-65
2022/02/01 12:32:06;;;;;;;58.20;31.83;;;;;;;;;;5033286;28;20086;-65
2022/02/01 12:34:33;;;;;;;60.47;30.90;;;;;;;;;;5033362;28;20045;-65
2022/02/01 12:36:59;;;;;;;48.17;26.38;;;;;;;;;;5031858;28;20497;-67
2022/02/01 12:39:31;;;;;;;50.38;26.83;;;;;;;;;;5033308;28;20029;-66
2022/02/01 12:42:02;;;;;;;49.40;26.55;;;;;;;;;;5033356;28;20071;-65
2022/02/01 12:47:31;;;;;;;44.30;24.92;;;;;;;;;;5032680;28;20449;-65
2022/02/01 12:49:58;;;;;;;49.95;24.95;;;;;;;;;;5032784;28;20071;-68
2022/02/01 12:52:25;;;;;;;53.10;27.15;;;;;;;;;;5033146;28;20080;-66
2022/02/01 12:55:19;;;;;;;62.65;32.53;;;;;;;;;;5033066;28;20382;-67
2022/02/01 12:57:45;;;;;;;56.92;30.15;;;;;;;;;;5031065;28;20044;-66
2022/02/01 13:00:13;;;;;;;48.83;27.90;;;;;;;;;;5032988;28;20163;-68
2022/02/01 13:02:39;;;;;;;70.05;37.40;;;;;;;;;;5033101;28;20061;-67
2022/02/01 13:05:09;;;;;;;48.13;28.20;;;;;;;;;;5033009;28;20033;-65
2022/02/01 13:21:09;;;;;;;32.95;19.98;;;;;;;;;;5032893;28;20151;-66
2022/02/01 13:23:45;;;;;;;38.78;20.80;;;;;;;;;;5032924;28;20018;-64
2022/02/01 13:26:13;;;;;;;54.20;29.95;;;;;;;;;;5033113;28;20045;-65
2022/02/01 13:28:40;;;;;;;48.40;24.55;;;;;;;;;;5032656;28;20021;-66
2022/02/01 13:31:10;;;;;;;42.03;23.17;;;;;;;;;;5034299;28;20025;-66
2022/02/01 13:33:49;;;;;;;43.17;24.13;;;;;;;;;;5035467;28;20378;-66
2022/02/01 13:36:16;;;;;;;49.65;25.58;;;;;;;;;;5036698;28;20192;-65
2022/02/01 13:38:52;;;;;;;47.38;25.50;;;;;;;;;;5035325;28;20078;-65
2022/02/01 13:41:19;;;;;;;50.72;29.23;;;;;;;;;;5036628;28;20108;-66
2022/02/01 13:43:47;;;;;;;52.90;29.15;;;;;;;;;;5036600;28;20053;-65
2022/02/01 13:46:19;;;;;;;58.20;29.35;;;;;;;;;;5035030;28;20059;-66
2022/02/01 13:48:46;;;;;;;53.92;26.67;;;;;;;;;;5036500;28;20028;-65
2022/02/01 13:51:12;;;;;;;53.75;28.60;;;;;;;;;;5036205;28;20060;-65
2022/02/01 13:53:39;;;;;;;46.85;25.63;;;;;;;;;;5034925;28;20377;-65
2022/02/01 13:56:08;;;;;;;48.20;26.38;;;;;;;;;;5034916;28;20026;-65
2022/02/01 13:58:36;;;;;;;59.58;29.52;;;;;;;;;;5030218;28;20111;-69
2022/02/01 14:01:02;;;;;;;54.10;27.20;;;;;;;;;;5016428;28;20034;-68
2022/02/01 14:06:42;;;;;;;73.43;32.30;;;;;;;;;;5016197;28;20072;-67
2022/02/01 14:12:13;;;;;;;50.88;26.83;;;;;;;;;;5016035;28;20029;-68
2022/02/01 14:35:41;;;;;;;103.07;58.35;;;;;;;;;;5015563;28;20069;-64
2022/02/01 14:38:23;;;;;;;51.65;30.35;;;;;;;;;;5015590;28;20037;-66
2022/02/01 14:46:07;;;;;;;49.33;29.50;;;;;;;;;;5015316;28;20061;-67
2022/02/01 14:48:36;;;;;;;43.95;27.77;;;;;;;;;;5015575;28;20034;-66
2022/02/01 14:51:03;;;;;;;27.00;16.00;;;;;;;;;;5015288;28;20759;-66
2022/02/01 14:53:32;;;;;;;26.52;15.52;;;;;;;;;;5014701;28;20458;-64
2022/02/01 14:56:08;;;;;;;28.10;16.67;;;;;;;;;;5035093;28;20037;-65
2022/02/01 15:14:59;;;;;;;54.00;33.42;;;;;;;;;;5031348;28;20037;-66
2022/02/01 15:17:25;;;;;;;70.15;41.05;;;;;;;;;;5033366;28;20115;-66
2022/02/01 15:19:51;;;;;;;66.68;39.15;;;;;;;;;;5034868;28;20025;-67
2022/02/01 15:22:17;;;;;;;74.38;42.90;;;;;;;;;;5034674;28;20061;-65
2022/02/01 15:24:45;;;;;;;60.42;33.92;;;;;;;;;;5034595;28;20082;-66
2022/02/01 15:27:12;;;;;;;64.18;34.35;;;;;;;;;;5034631;28;20028;-65
2022/02/01 15:29:38;;;;;;;60.72;35.58;;;;;;;;;;5033118;28;20044;-66
2022/02/01 15:32:05;;;;;;;52.03;32.17;;;;;;;;;;5030441;28;20509;-64
2022/02/01 15:34:33;;;;;;;64.45;34.80;;;;;;;;;;5014485;28;20053;-65
2022/02/01 15:37:03;;;;;;;60.60;34.17;;;;;;;;;;5013297;28;20532;-66
2022/02/01 15:54:24;;;;;;;73.25;39.42;;;;;;;;;;5018359;28;20083;-67
2022/02/01 15:56:47;;;;;;;60.30;35.97;;;;;;;;;;5033775;28;20041;-66
2022/02/01 15:59:08;;;;;;;67.57;38.80;;;;;;;;;;5033874;28;20044;-67
2022/02/01 16:04:05;;;;;;;94.65;53.25;;;;;;;;;;5033956;28;20040;-67
2022/02/01 16:06:33;;;;;;;98.63;53.28;;;;;;;;;;5033816;28;20025;-68
2022/02/01 16:09:13;;;;;;;74.47;41.28;;;;;;;;;;5033527;28;20144;-68
2022/02/01 16:11:42;;;;;;;64.68;34.17;;;;;;;;;;5032517;28;20377;-66
2022/02/01 16:14:08;;;;;;;53.50;33.83;;;;;;;;;;5032469;28;20034;-67
2022/02/01 16:16:34;;;;;;;61.20;36.47;;;;;;;;;;5033298;28;20524;-67
2022/02/01 16:19:03;;;;;;;69.57;39.92;;;;;;;;;;5031913;28;20036;-66
2022/02/01 16:21:29;;;;;;;70.75;38.70;;;;;;;;;;5033327;28;20033;-66
2022/02/01 16:23:56;;;;;;;71.03;39.90;;;;;;;;;;5033861;28;20023;-66
2022/02/01 16:26:22;;;;;;;73.35;43.28;;;;;;;;;;5032129;28;20029;-66
2022/02/01 16:28:48;;;;;;;55.05;31.27;;;;;;;;;;5032916;28;20029;-68
2022/02/01 16:31:15;;;;;;;60.83;33.45;;;;;;;;;;5033182;28;20103;-67
2022/02/01 16:33:42;;;;;;;66.57;35.03;;;;;;;;;;5033274;28;20033;-66
2022/02/01 16:36:08;;;;;;;65.13;33.85;;;;;;;;;;5031905;28;20482;-67
2022/02/01 16:38:34;;;;;;;66.95;35.55;;;;;;;;;;5032297;28;20095;-65
2022/02/01 16:41:01;;;;;;;64.78;36.58;;;;;;;;;;5033255;28;20033;-66
2022/02/01 16:43:34;;;;;;;61.20;33.70;;;;;;;;;;5033339;28;20120;-65
2022/02/01 16:46:00;;;;;;;63.00;35.70;;;;;;;;;;5032974;28;20025;-66
2022/02/01 16:48:26;;;;;;;59.28;33.47;;;;;;;;;;5033116;28;20048;-66
2022/02/01 16:50:52;;;;;;;66.57;34.85;;;;;;;;;;5033446;28;20053;-65
2022/02/01 16:53:21;;;;;;;66.03;33.55;;;;;;;;;;5033111;28;20036;-67
2022/02/01 16:56:00;;;;;;;62.00;35.20;;;;;;;;;;5033185;28;20025;-66
2022/02/01 16:58:30;;;;;;;67.85;37.35;;;;;;;;;;5025135;28;20087;-66
2022/02/01 17:00:57;;;;;;;75.13;39.42;;;;;;;;;;5021697;28;20109;-67
2022/02/01 17:03:24;;;;;;;77.25;40.00;;;;;;;;;;5022932;28;20104;-65
2022/02/01 17:05:52;;;;;;;69.13;38.67;;;;;;;;;;5018978;28;20026;-66
2022/02/01 17:08:19;;;;;;;70.72;40.20;;;;;;;;;;5021189;28;20026;-66
2022/02/01 17:10:52;;;;;;;74.70;40.25;;;;;;;;;;5020708;28;20069;-66
2022/02/01 17:23:48;;;;;;;75.97;42.28;;;;;;;;;;5012839;28;20053;-65
2022/02/01 17:26:14;;;;;;;89.95;46.08;;;;;;;;;;5012940;28;20117;-65